KMIA

Miami International Airport

Miami, Florida, USA
METAR KMIA 180253Z 08005KT 10SM FEW042 BKN055 BKN250 24/22 A3023 RMK AO2 SLP237 T02440217 51011
Observed Flight Rules
Dec-18 @ 02:53 UTC (14 minutes ago) Visual Flight Rules
Wind Visibility Clouds
80° at 5 knots 10 miles
  • Few at 4,200' AGL
  • Broken at 5,500' AGL
  • Broken at 25,000' AGL
Temperatures Readings
Current 24°C / 75°F
Dewpoint 22°C / 72°F
Humidity 89%
Altimeter 30.23" Hg
Pressure 1023.7 hPa
Elevation 3
METAR KMIA 180253Z 08005KT 10SM FEW042 BKN055 BKN250 24/22 A3023 RMK AO2 SLP237 T02440217 51011
Observed Flight Rules
Dec-18 @ 02:53 UTC
(14 minutes ago)
VFR
Wind Visibility
80° at 5 knots 10 miles
Clouds
  • Few at 4,200' AGL
  • Broken at 5,500' AGL
  • Broken at 25,000' AGL
Temperature Dewpoint
24°C / 75°F 22°C / 72°F
Humidity Altimeter Pressure
89% 30.23" Hg 1023.7 hPa